Time;durP1;ratioP1;P1;durP2;ratioP2;P2;SDS_P1;SDS_P2;PMS_P1;PMS_P2;Temp;Humidity;BMP_temperature;BMP_pressure;BME280_temperature;BME280_humidity;BME280_pressure;Samples;Min_cycle;Max_cycle;Signal;HPM_P1;HPM_P2
2023/01/11 00:01:34;;;;;;;;;;;;;;;5.58;69.85;100539.06;5392880;32;33612;-78
2023/01/11 00:04:36;;;;;;;;;;;;;;;5.40;69.87;100545.44;5379666;32;33372;-79
2023/01/11 00:07:39;;;;;;;;;;;;;;;5.44;70.06;100542.75;5393553;32;33597;-71
2023/01/11 00:10:41;;;;;;;;;;;;;;;5.41;69.95;100539.34;5380159;32;33272;-72
2023/01/11 00:13:46;;;;;;;;;;;;;;;5.18;70.87;100537.09;5392817;32;33652;-72
2023/01/11 00:16:48;;;;;;;;;;;;;;;5.27;70.91;100539.53;5378720;32;45457;-78
2023/01/11 00:19:50;;;;;;;;;;;;;;;5.84;68.01;100542.09;5381190;32;33582;-71
2023/01/11 00:22:52;;;;;;;;;;;;;;;5.40;69.65;100546.28;5393494;32;34214;-71
2023/01/11 00:25:53;;;;;;;;;;;;;;;5.26;70.57;100537.81;5373993;32;32931;-79
2023/01/11 00:28:55;;;;;;;;;;;;;;;5.33;70.04;100549.88;5394265;32;33165;-72
2023/01/11 00:31:57;;;;;;;;;;;;;;;5.37;69.61;100541.13;5365956;32;34490;-71
2023/01/11 00:34:59;;;;;;;;;;;;;;;5.60;68.93;100538.19;5380917;32;35695;-71
2023/01/11 00:38:01;;;;;;;;;;;;;;;5.17;70.12;100527.53;5379994;32;34263;-71
2023/01/11 00:47:55;;;;;;;;;;;;;;;5.39;69.97;100541.97;5379140;32;34101;-80
2023/01/11 00:47:57;;;;;;;;;;;;;;;5.38;68.63;100549.81;5357872;32;33199;-70
2023/01/11 00:50:59;;;;;;;;;;;;;;;5.60;68.17;100548.59;5362467;32;33140;-80
2023/01/11 00:54:01;;;;;;;;;;;;;;;5.93;66.95;100548.97;5367213;32;34971;-79
2023/01/11 00:57:03;;;;;;;;;;;;;;;6.13;66.13;100552.06;5364196;32;33889;-79
2023/01/11 01:00:05;;;;;;;;;;;;;;;6.06;65.85;100560.03;5381275;32;34014;-79
2023/01/11 01:03:07;;;;;;;;;;;;;;;6.27;65.01;100557.03;5351530;32;34495;-72
2023/01/11 01:06:09;;;;;;;;;;;;;;;6.09;65.64;100565.19;5381765;32;34683;-79
2023/01/11 01:09:11;;;;;;;;;;;;;;;5.68;67.24;100566.72;5349437;32;34195;-77
2023/01/11 01:14:24;;;;;;;;;;;;;;;5.53;67.19;100577.38;5373837;32;33725;-70
2023/01/11 01:15:35;;;;;;;;;;;;;;;5.83;67.16;100579.50;5350352;32;948834;-70
2023/01/11 01:18:37;;;;;;;;;;;;;;;5.79;67.05;100582.19;5365664;32;33800;-81
2023/01/11 01:21:39;;;;;;;;;;;;;;;5.82;67.05;100575.19;5376368;32;33793;-80
2023/01/11 01:24:41;;;;;;;;;;;;;;;5.77;66.86;100579.59;5350032;32;34352;-71
2023/01/11 01:27:43;;;;;;;;;;;;;;;5.56;66.99;100586.03;5383156;32;34908;-80
2023/01/11 01:30:48;;;;;;;;;;;;;;;5.27;68.31;100594.25;5367169;32;33759;-78
2023/01/11 01:33:50;;;;;;;;;;;;;;;5.61;67.05;100597.25;5367537;32;44936;-79
2023/01/11 01:36:52;;;;;;;;;;;;;;;5.59;67.32;100593.78;5379279;32;33342;-71
2023/01/11 01:39:54;;;;;;;;;;;;;;;5.79;66.62;100584.78;5359625;32;33636;-79
2023/01/11 01:42:55;;;;;;;;;;;;;;;5.32;67.89;100587.25;5382023;32;34024;-71
2023/01/11 01:45:57;;;;;;;;;;;;;;;5.69;66.99;100587.56;5382142;32;33774;-78
2023/01/11 01:49:11;;;;;;;;;;;;;;;5.94;65.96;100587.19;5394018;32;34243;-71
2023/01/11 01:52:13;;;;;;;;;;;;;;;5.66;67.21;100597.16;5363037;32;33863;-72
2023/01/11 01:55:16;;;;;;;;;;;;;;;6.34;64.66;100579.50;5385564;32;33277;-79
2023/01/11 01:58:19;;;;;;;;;;;;;;;6.33;63.99;100590.84;5400961;32;45438;-79
2023/01/11 02:04:42;;;;;;;;;;;;;;;6.62;63.43;100590.28;5397945;32;34196;-71
2023/01/11 02:07:44;;;;;;;;;;;;;;;6.19;63.67;100587.62;5373049;32;33608;-70
2023/01/11 02:10:45;;;;;;;;;;;;;;;5.94;65.61;100589.81;5374727;32;33537;-71
2023/01/11 02:13:47;;;;;;;;;;;;;;;5.96;65.49;100603.69;5389682;32;45097;-70
2023/01/11 02:16:49;;;;;;;;;;;;;;;5.80;66.11;100616.09;5379264;32;33761;-71
2023/01/11 02:19:51;;;;;;;;;;;;;;;5.52;66.45;100610.41;5397578;32;33529;-71
2023/01/11 02:23:02;;;;;;;;;;;;;;;5.13;68.49;100619.66;5379726;32;33082;-77
2023/01/11 02:26:10;;;;;;;;;;;;;;;5.33;68.31;100617.63;5397576;32;33303;-78
2023/01/11 02:29:15;;;;;;;;;;;;;;;5.12;68.91;100612.72;5384791;32;33792;-71
2023/01/11 02:32:25;;;;;;;;;;;;;;;5.41;67.88;100614.94;5379288;32;44668;-72
2023/01/11 02:35:30;;;;;;;;;;;;;;;5.51;67.07;100615.66;5395773;32;34121;-71
2023/01/11 02:38:36;;;;;;;;;;;;;;;5.16;67.75;100614.41;5383118;32;34444;-70
2023/01/11 02:45:33;;;;;;;;;;;;;;;4.75;69.72;100622.72;5388745;32;37194;-70
2023/01/11 02:48:42;;;;;;;;;;;;;;;5.00;69.26;100621.56;5379869;32;33018;-79
2023/01/11 02:51:46;;;;;;;;;;;;;;;5.59;68.12;100612.03;5380015;32;35108;-78
2023/01/11 02:54:52;;;;;;;;;;;;;;;5.98;65.60;100612.31;5384957;32;45416;-71
2023/01/11 02:57:55;;;;;;;;;;;;;;;5.87;65.77;100612.50;5393559;32;34243;-70
2023/01/11 03:00:57;;;;;;;;;;;;;;;4.99;68.30;100618.97;5379257;32;33356;-71
2023/01/11 03:03:59;;;;;;;;;;;;;;;5.05;68.42;100621.50;5381423;32;34213;-71
2023/01/11 03:07:04;;;;;;;;;;;;;;;5.38;67.58;100628.00;5399170;32;33511;-72
2023/01/11 03:10:17;;;;;;;;;;;;;;;5.14;69.17;100634.41;5387865;32;34628;-79
2023/01/11 03:13:38;;;;;;;;;;;;;;;5.08;69.14;100637.09;5387239;32;44440;-78
2023/01/11 03:16:42;;;;;;;;;;;;;;;4.92;69.68;100649.44;5381919;32;33974;-72
2023/01/11 03:19:51;;;;;;;;;;;;;;;6.06;65.93;100635.72;5394116;32;34046;-71
2023/01/11 03:22:56;;;;;;;;;;;;;;;5.30;67.80;100637.69;5402475;32;46634;-72
2023/01/11 03:26:01;;;;;;;;;;;;;;;5.31;67.54;100645.47;5382998;32;33836;-78
2023/01/11 03:29:26;;;;;;;;;;;;;;;5.09;67.70;100659.69;5389833;32;33538;-80
2023/01/11 03:32:31;;;;;;;;;;;;;;;5.72;66.61;100667.47;5363874;32;33224;-79
2023/01/11 03:35:38;;;;;;;;;;;;;;;6.30;64.48;100671.81;5378950;32;34203;-78
2023/01/11 03:38:40;;;;;;;;;;;;;;;6.05;65.41;100670.50;5394972;32;33644;-70
2023/01/11 03:41:42;;;;;;;;;;;;;;;5.51;66.78;100676.47;5378947;32;33608;-78
2023/01/11 03:44:45;;;;;;;;;;;;;;;5.62;66.88;100671.13;5394725;32;34178;-72
2023/01/11 03:47:47;;;;;;;;;;;;;;;5.69;66.74;100676.22;5359641;32;44772;-78
2023/01/11 03:50:49;;;;;;;;;;;;;;;5.57;65.61;100668.56;5381649;32;33981;-79
2023/01/11 03:53:51;;;;;;;;;;;;;;;4.74;69.69;100663.53;5377076;32;33715;-79
2023/01/11 03:56:53;;;;;;;;;;;;;;;5.14;68.69;100650.03;5383763;32;34286;-70
2023/01/11 03:59:55;;;;;;;;;;;;;;;5.55;67.99;100641.66;5399278;32;34508;-79
2023/01/11 04:02:58;;;;;;;;;;;;;;;5.50;67.21;100632.19;5374758;32;35346;-71
2023/01/11 04:06:00;;;;;;;;;;;;;;;5.16;68.32;100632.66;5392929;32;33898;-71
2023/01/11 04:09:03;;;;;;;;;;;;;;;4.93;68.57;100632.06;5379614;32;33911;-70
2023/01/11 04:12:04;;;;;;;;;;;;;;;5.25;68.50;100635.12;5387345;32;34441;-80
2023/01/11 04:15:08;;;;;;;;;;;;;;;5.31;67.27;100639.41;5385671;32;33252;-71
2023/01/11 04:18:10;;;;;;;;;;;;;;;5.77;65.74;100639.59;5378152;32;33521;-80
2023/01/11 04:21:11;;;;;;;;;;;;;;;5.80;66.24;100650.00;5392898;32;33398;-72
2023/01/11 04:24:13;;;;;;;;;;;;;;;6.18;64.28;100645.91;5381079;32;33473;-69
2023/01/11 04:27:15;;;;;;;;;;;;;;;4.77;68.71;100653.09;5392480;32;33618;-79
2023/01/11 04:30:17;;;;;;;;;;;;;;;5.36;67.14;100643.69;5371429;32;47924;-79
2023/01/11 04:33:19;;;;;;;;;;;;;;;5.64;66.44;100649.34;5392191;32;34095;-78
2023/01/11 04:36:21;;;;;;;;;;;;;;;6.30;63.83;100639.63;5380137;32;33789;-70
2023/01/11 04:39:23;;;;;;;;;;;;;;;5.42;66.02;100637.53;5382044;32;33606;-80
2023/01/11 04:42:25;;;;;;;;;;;;;;;4.84;69.04;100646.94;5400244;32;33652;-79
2023/01/11 04:45:28;;;;;;;;;;;;;;;4.95;69.47;100656.34;5380055;32;34179;-71
2023/01/11 04:48:32;;;;;;;;;;;;;;;5.05;68.66;100658.84;5398607;32;34217;-71
2023/01/11 04:51:34;;;;;;;;;;;;;;;4.94;69.06;100686.75;5369323;32;34458;-72
2023/01/11 04:54:35;;;;;;;;;;;;;;;5.16;68.86;100703.88;5396688;32;33564;-79
2023/01/11 04:57:37;;;;;;;;;;;;;;;6.00;66.08;100699.28;5385217;32;34502;-77
2023/01/11 05:00:39;;;;;;;;;;;;;;;6.06;64.43;100677.47;5382647;32;33756;-78
2023/01/11 05:03:42;;;;;;;;;;;;;;;5.24;66.06;100679.47;5397892;32;34156;-78
2023/01/11 05:06:44;;;;;;;;;;;;;;;5.28;68.26;100684.63;5380931;32;35943;-70
2023/01/11 05:09:45;;;;;;;;;;;;;;;5.44;66.22;100688.75;5381204;32;34506;-78
2023/01/11 05:12:47;;;;;;;;;;;;;;;5.39;66.67;100689.69;5377838;32;44566;-79
2023/01/11 05:15:49;;;;;;;;;;;;;;;5.85;65.68;100681.22;5384063;32;33683;-70
2023/01/11 05:18:51;;;;;;;;;;;;;;;5.22;67.73;100657.78;5383322;32;33665;-78
2023/01/11 05:21:53;;;;;;;;;;;;;;;5.23;68.25;100668.19;5383416;32;33579;-71
2023/01/11 05:24:55;;;;;;;;;;;;;;;5.02;68.08;100684.91;5398710;32;34997;-79
2023/01/11 05:27:57;;;;;;;;;;;;;;;5.13;68.51;100697.81;5375690;32;33874;-72
2023/01/11 05:30:59;;;;;;;;;;;;;;;5.92;66.06;100690.69;5395411;32;34017;-72
2023/01/11 05:34:01;;;;;;;;;;;;;;;5.89;64.61;100677.69;5382637;32;33657;-80
2023/01/11 05:37:03;;;;;;;;;;;;;;;5.95;64.75;100688.06;5385346;32;33692;-79
2023/01/11 05:40:05;;;;;;;;;;;;;;;5.42;67.68;100687.03;5384250;32;33185;-70
2023/01/11 05:43:07;;;;;;;;;;;;;;;5.03;68.78;100678.00;5372340;32;33585;-79
2023/01/11 05:46:09;;;;;;;;;;;;;;;5.22;67.53;100678.63;5396187;32;33139;-72
2023/01/11 05:49:12;;;;;;;;;;;;;;;5.02;68.01;100673.63;5381624;32;35219;-78
2023/01/11 05:52:14;;;;;;;;;;;;;;;4.98;67.45;100662.41;5371943;32;34027;-70
2023/01/11 05:55:16;;;;;;;;;;;;;;;5.12;69.46;100678.72;5381974;32;44849;-78
2023/01/11 05:58:18;;;;;;;;;;;;;;;5.43;67.94;100684.41;5392145;32;33113;-70
2023/01/11 06:01:21;;;;;;;;;;;;;;;5.19;67.80;100673.44;5382358;32;33429;-79
2023/01/11 06:04:23;;;;;;;;;;;;;;;5.14;67.94;100655.25;5373106;32;33737;-71
2023/01/11 06:07:25;;;;;;;;;;;;;;;5.68;66.61;100658.00;5393538;32;33698;-71
2023/01/11 06:10:27;;;;;;;;;;;;;;;5.10;68.36;100670.06;5368505;32;33434;-78
2023/01/11 06:13:29;;;;;;;;;;;;;;;4.99;69.47;100656.31;5392542;32;33175;-71
2023/01/11 06:16:31;;;;;;;;;;;;;;;5.33;67.87;100672.38;5380099;32;34396;-71
2023/01/11 06:19:33;;;;;;;;;;;;;;;5.27;67.48;100675.06;5391942;32;33732;-79
2023/01/11 06:22:34;;;;;;;;;;;;;;;6.04;65.10;100667.03;5386100;32;34654;-70
2023/01/11 06:25:36;;;;;;;;;;;;;;;5.20;68.31;100677.75;5381098;32;33213;-77
2023/01/11 06:28:38;;;;;;;;;;;;;;;5.60;67.34;100672.88;5396975;32;34260;-79
2023/01/11 06:31:40;;;;;;;;;;;;;;;5.20;67.04;100664.72;5380974;32;33916;-75
2023/01/11 06:34:42;;;;;;;;;;;;;;;5.57;66.21;100662.50;5397394;32;34549;-74
2023/01/11 06:37:44;;;;;;;;;;;;;;;4.77;69.57;100683.50;5359680;32;34713;-79
2023/01/11 06:40:54;;;;;;;;;;;;;;;5.19;69.15;100684.72;5394432;32;44603;-79
2023/01/11 06:43:56;;;;;;;;;;;;;;;5.60;66.07;100668.56;5387293;32;33506;-75
2023/01/11 06:46:58;;;;;;;;;;;;;;;4.91;68.71;100675.53;5372204;32;34154;-73
2023/01/11 06:50:00;;;;;;;;;;;;;;;5.90;66.40;100695.91;5396227;32;34822;-73
2023/01/11 06:53:02;;;;;;;;;;;;;;;6.64;63.81;100699.97;5369290;32;33160;-72
2023/01/11 06:56:04;;;;;;;;;;;;;;;5.44;67.00;100708.72;5399785;32;34904;-74
2023/01/11 06:59:06;;;;;;;;;;;;;;;5.54;66.67;100712.06;5378620;32;34280;-74
2023/01/11 07:02:08;;;;;;;;;;;;;;;6.26;64.74;100713.69;5395661;32;34454;-75
2023/01/11 07:05:10;;;;;;;;;;;;;;;6.70;62.94;100699.84;5369043;32;33030;-74
2023/01/11 07:08:18;;;;;;;;;;;;;;;6.93;61.54;100720.31;5375429;32;43685;-75
2023/01/11 07:11:20;;;;;;;;;;;;;;;6.13;64.21;100731.28;5396887;32;33000;-77
2023/01/11 07:14:23;;;;;;;;;;;;;;;6.17;64.64;100730.31;5382289;32;34532;-83
2023/01/11 07:17:26;;;;;;;;;;;;;;;5.93;65.57;100744.63;5387215;32;33003;-82
2023/01/11 07:20:30;;;;;;;;;;;;;;;5.77;66.42;100743.91;5375316;32;33060;-80
2023/01/11 07:23:32;;;;;;;;;;;;;;;5.54;67.26;100751.19;5383361;32;34149;-78
2023/01/11 07:26:39;;;;;;;;;;;;;;;5.44;67.70;100750.44;5395469;32;33055;-80
2023/01/11 07:29:42;;;;;;;;;;;;;;;5.76;65.87;100767.44;5382285;32;34174;-81
2023/01/11 07:32:44;;;;;;;;;;;;;;;5.51;67.75;100766.88;5382186;32;34469;-82
2023/01/11 07:35:47;;;;;;;;;;;;;;;6.69;64.11;100747.75;5382311;32;45126;-80
2023/01/11 07:38:49;;;;;;;;;;;;;;;7.29;60.71;100755.34;5386663;32;33053;-75
2023/01/11 07:45:11;;;;;;;;;;;;;;;5.78;66.08;100774.34;5381548;32;34252;-72
2023/01/11 07:48:14;;;;;;;;;;;;;;;6.67;63.38;100766.06;5388133;32;33439;-86
2023/01/11 07:51:19;;;;;;;;;;;;;;;6.97;61.97;100754.22;5368268;32;43521;-83
2023/01/11 07:54:23;;;;;;;;;;;;;;;6.70;62.75;100754.72;5390254;32;31985;-70
2023/01/11 07:57:25;;;;;;;;;;;;;;;5.12;67.29;100761.25;5369638;32;33872;-82
2023/01/11 08:00:27;;;;;;;;;;;;;;;5.16;69.01;100757.72;5390971;32;34460;-70
2023/01/11 08:03:29;;;;;;;;;;;;;;;5.53;68.37;100755.53;5384940;32;34577;-82
2023/01/11 08:06:31;;;;;;;;;;;;;;;6.51;64.42;100756.78;5369734;32;33331;-80
2023/01/11 08:09:33;;;;;;;;;;;;;;;5.55;67.69;100763.34;5375102;32;34110;-78
2023/01/11 08:16:01;;;;;;;;;;;;;;;6.18;64.82;100773.81;5389395;32;33822;-77
2023/01/11 08:19:03;;;;;;;;;;;;;;;6.17;65.40;100779.91;5389917;32;33033;-90
2023/01/11 08:22:05;;;;;;;;;;;;;;;7.07;61.87;100765.34;5393133;32;34651;-87
2023/01/11 08:25:07;;;;;;;;;;;;;;;6.69;63.30;100768.63;5402643;32;33146;-92
2023/01/11 08:28:10;;;;;;;;;;;;;;;6.21;64.21;100777.25;5390742;32;34448;-83
2023/01/11 08:31:12;;;;;;;;;;;;;;;6.44;64.63;100784.72;5399129;32;33394;-75
2023/01/11 08:34:14;;;;;;;;;;;;;;;7.28;61.62;100785.00;5377208;32;34366;-73
2023/01/11 08:37:16;;;;;;;;;;;;;;;6.07;64.51;100789.63;5401424;32;32966;-81
2023/01/11 08:40:18;;;;;;;;;;;;;;;6.43;63.05;100785.59;5383907;32;43685;-92
2023/01/11 08:43:23;;;;;;;;;;;;;;;6.70;63.61;100786.06;5385059;32;32782;-84
2023/01/11 08:46:25;;;;;;;;;;;;;;;7.32;61.73;100786.66;5385621;32;32950;-68
2023/01/11 08:49:29;;;;;;;;;;;;;;;7.47;60.24;100781.16;5386541;32;33507;-69
2023/01/11 08:52:31;;;;;;;;;;;;;;;6.87;62.69;100767.47;5374859;32;33144;-77
2023/01/11 08:55:33;;;;;;;;;;;;;;;7.17;62.63;100776.50;5387786;32;33267;-83
2023/01/11 08:58:35;;;;;;;;;;;;;;;7.33;61.72;100789.22;5388396;32;31863;-83
2023/01/11 09:01:37;;;;;;;;;;;;;;;8.08;58.48;100771.97;5392630;32;33102;-70
2023/01/11 09:04:40;;;;;;;;;;;;;;;6.91;62.69;100790.91;5370648;32;33686;-72
2023/01/11 09:07:42;;;;;;;;;;;;;;;7.54;61.31;100790.59;5394371;32;33035;-87
2023/01/11 09:10:44;;;;;;;;;;;;;;;7.58;61.17;100788.75;5370403;32;32964;-82
2023/01/11 09:13:46;;;;;;;;;;;;;;;7.40;61.19;100794.34;5396327;32;44859;-73
2023/01/11 09:16:48;;;;;;;;;;;;;;;7.91;59.93;100788.94;5380041;32;33223;-70
2023/01/11 09:19:51;;;;;;;;;;;;;;;7.55;59.92;100783.59;5388995;32;33113;-76
2023/01/11 09:22:53;;;;;;;;;;;;;;;7.84;59.37;100781.22;5377542;32;33322;-75
2023/01/11 09:25:55;;;;;;;;;;;;;;;8.37;57.50;100787.06;5373442;32;34477;-73
2023/01/11 09:28:57;;;;;;;;;;;;;;;8.46;57.03;100787.72;5396161;32;33371;-72
2023/01/11 09:31:59;;;;;;;;;;;;;;;8.73;56.63;100781.78;5387156;32;33458;-73
2023/01/11 09:35:02;;;;;;;;;;;;;;;8.06;57.91;100784.25;5402577;32;31556;-76
2023/01/11 09:38:04;;;;;;;;;;;;;;;8.09;58.21;100780.69;5383592;32;33251;-79
2023/01/11 09:41:35;;;;;;;;;;;;;;;7.50;59.18;100785.44;5391082;32;34459;-72
2023/01/11 09:45:01;;;;;;;;;;;;;;;8.03;58.11;100773.81;5387136;32;34406;-71
2023/01/11 09:48:14;;;;;;;;;;;;;;;8.12;58.68;100780.63;5377164;32;33336;-73
2023/01/11 09:51:18;;;;;;;;;;;;;;;8.53;57.01;100771.81;5361301;32;34756;-73
2023/01/11 09:54:22;;;;;;;;;;;;;;;8.61;56.17;100775.09;5388222;32;43963;-79
2023/01/11 09:57:40;;;;;;;;;;;;;;;9.21;55.12;100761.31;5353325;32;33623;-73
2023/01/11 10:00:53;;;;;;;;;;;;;;;9.67;53.68;100751.25;5395889;32;33568;-72
2023/01/11 10:04:08;;;;;;;;;;;;;;;9.80;53.04;100754.38;5389660;32;44421;-71
2023/01/11 10:07:29;;;;;;;;;;;;;;;9.90;52.35;100743.53;5388993;32;35986;-70
2023/01/11 10:10:42;;;;;;;;;;;;;;;9.36;53.26;100739.03;5391317;32;33044;-77
2023/01/11 10:14:10;;;;;;;;;;;;;;;9.41;53.25;100737.12;5392142;32;34461;-79
2023/01/11 10:17:39;;;;;;;;;;;;;;;9.01;53.95;100731.25;5385290;32;33330;-72
2023/01/11 10:21:10;;;;;;;;;;;;;;;8.97;53.42;100721.78;5386384;32;33405;-77
2023/01/11 10:24:20;;;;;;;;;;;;;;;8.07;55.69;100728.37;5389341;32;33870;-76
2023/01/11 10:27:44;;;;;;;;;;;;;;;9.16;53.12;100723.00;5390115;32;46244;-71
2023/01/11 10:41:02;;;;;;;;;;;;;;;9.06;52.94;100734.63;5383166;32;33815;-82
2023/01/11 10:44:07;;;;;;;;;;;;;;;8.52;54.54;100730.81;5395812;32;34544;-83
2023/01/11 10:47:12;;;;;;;;;;;;;;;8.75;53.85;100734.56;5386191;32;33660;-80
2023/01/11 10:50:23;;;;;;;;;;;;;;;8.19;56.25;100732.47;5375876;32;34403;-70
2023/01/11 10:53:27;;;;;;;;;;;;;;;9.22;54.15;100728.94;5387592;32;44638;-76
2023/01/11 10:56:48;;;;;;;;;;;;;;;10.24;51.19;100730.25;5367955;32;33686;-82
2023/01/11 11:00:26;;;;;;;;;;;;;;;9.55;52.68;100728.87;5392565;32;33024;-81
2023/01/11 11:03:47;;;;;;;;;;;;;;;8.88;54.80;100730.72;5390410;32;34969;-72
2023/01/11 11:06:53;;;;;;;;;;;;;;;8.63;55.57;100728.78;5388509;32;44458;-75
2023/01/11 11:10:13;;;;;;;;;;;;;;;9.09;54.95;100724.06;5391064;32;33033;-90
2023/01/11 11:13:18;;;;;;;;;;;;;;;10.45;52.05;100715.56;5387543;32;33116;-88
2023/01/11 11:16:23;;;;;;;;;;;;;;;11.08;49.83;100716.03;5391105;32;44513;-88
2023/01/11 11:19:28;;;;;;;;;;;;;;;12.38;46.87;100690.78;5385017;32;33704;-81
2023/01/11 11:22:30;;;;;;;;;;;;;;;13.47;43.50;100675.47;5389273;32;33153;-77
2023/01/11 11:25:32;;;;;;;;;;;;;;;12.98;44.38;100683.78;5388513;32;33033;-84
2023/01/11 11:28:35;;;;;;;;;;;;;;;12.34;45.00;100689.19;5385148;32;33190;-87
2023/01/11 11:31:40;;;;;;;;;;;;;;;11.15;49.01;100690.34;5389880;32;32989;-74
2023/01/11 11:34:50;;;;;;;;;;;;;;;12.45;46.31;100679.06;5381754;32;32980;-81
2023/01/11 11:37:52;;;;;;;;;;;;;;;13.07;44.94;100679.03;5402254;32;44533;-75
2023/01/11 11:41:15;;;;;;;;;;;;;;;14.39;41.85;100666.59;5391807;32;32786;-81
2023/01/11 11:44:24;;;;;;;;;;;;;;;15.34;40.16;100661.66;5382551;32;44572;-80
2023/01/11 11:47:26;;;;;;;;;;;;;;;17.51;35.06;100659.47;5374981;32;33563;-88
2023/01/11 11:50:28;;;;;;;;;;;;;;;16.38;36.49;100669.03;5369259;32;33031;-75
2023/01/11 11:53:50;;;;;;;;;;;;;;;15.04;38.30;100666.78;5362625;32;32375;-75
2023/01/11 11:56:52;;;;;;;;;;;;;;;17.07;34.61;100663.13;5377848;32;33071;-79
2023/01/11 12:00:04;;;;;;;;;;;;;;;17.60;33.80;100669.53;5373471;32;33779;-80
2023/01/11 12:03:10;;;;;;;;;;;;;;;16.19;35.83;100670.09;5375300;32;32989;-86
2023/01/11 12:06:12;;;;;;;;;;;;;;;13.40;41.03;100677.53;5361747;32;34180;-84
2023/01/11 12:09:32;;;;;;;;;;;;;;;14.49;39.81;100667.87;5368780;32;33952;-71
2023/01/11 12:12:46;;;;;;;;;;;;;;;15.57;37.13;100681.56;5363947;32;34529;-80
2023/01/11 12:15:54;;;;;;;;;;;;;;;17.48;33.80;100665.84;5365395;32;47545;-72
2023/01/11 12:18:57;;;;;;;;;;;;;;;19.27;30.31;100664.50;5366653;32;32807;-82
2023/01/11 12:22:29;;;;;;;;;;;;;;;20.39;28.93;100659.84;5367155;32;34172;-73
2023/01/11 12:25:31;;;;;;;;;;;;;;;21.86;26.66;100662.53;5358257;32;31926;-76
2023/01/11 12:29:05;;;;;;;;;;;;;;;20.47;28.38;100649.47;5367167;32;33533;-78
2023/01/11 12:32:27;;;;;;;;;;;;;;;20.33;28.25;100662.12;5341561;32;33454;-76
2023/01/11 12:35:33;;;;;;;;;;;;;;;20.69;27.47;100662.03;5380882;32;34187;-76
2023/01/11 12:38:35;;;;;;;;;;;;;;;20.35;28.13;100668.19;5366222;32;32917;-80
2023/01/11 12:41:55;;;;;;;;;;;;;;;18.60;30.50;100674.47;5366287;32;32927;-80
2023/01/11 12:45:01;;;;;;;;;;;;;;;21.18;27.67;100666.19;5414616;32;34305;-76
2023/01/11 12:48:03;;;;;;;;;;;;;;;21.19;26.58;100664.37;5394675;32;33218;-80
2023/01/11 12:51:12;;;;;;;;;;;;;;;17.56;32.07;100683.94;5391632;32;33414;-69
2023/01/11 12:54:24;;;;;;;;;;;;;;;17.77;31.97;100676.44;5395233;32;33724;-70
2023/01/11 12:57:29;;;;;;;;;;;;;;;18.76;30.45;100672.50;5380334;32;34971;-72
2023/01/11 13:00:36;;;;;;;;;;;;;;;20.93;27.34;100666.44;5414774;32;32988;-75
2023/01/11 13:03:41;;;;;;;;;;;;;;;20.32;26.90;100655.09;5406228;32;31799;-73
2023/01/11 13:06:43;;;;;;;;;;;;;;;22.61;24.19;100650.94;5413789;32;32897;-74
2023/01/11 13:10:03;;;;;;;;;;;;;;;22.96;23.74;100644.37;5397333;32;32034;-75
2023/01/11 13:13:05;;;;;;;;;;;;;;;22.39;25.07;100635.81;5407825;32;33388;-73
2023/01/11 13:16:12;;;;;;;;;;;;;;;23.86;22.69;100646.25;5386897;32;33060;-70
2023/01/11 13:19:20;;;;;;;;;;;;;;;21.06;25.77;100653.84;5407305;32;33183;-74
2023/01/11 13:22:23;;;;;;;;;;;;;;;19.42;28.20;100658.06;5414573;32;44800;-86
2023/01/11 13:25:26;;;;;;;;;;;;;;;18.41;29.87;100651.75;5377673;32;32753;-75
2023/01/11 13:28:29;;;;;;;;;;;;;;;16.97;32.24;100662.81;5401849;32;33785;-80
2023/01/11 13:31:32;;;;;;;;;;;;;;;16.70;32.90;100673.31;5395853;32;33111;-77
2023/01/11 13:34:35;;;;;;;;;;;;;;;15.58;34.70;100675.31;5399779;32;33575;-77
2023/01/11 13:37:40;;;;;;;;;;;;;;;14.85;36.40;100677.47;5404655;32;33152;-82
2023/01/11 13:40:46;;;;;;;;;;;;;;;14.44;37.37;100683.09;5401034;32;33060;-74
2023/01/11 13:43:57;;;;;;;;;;;;;;;13.55;39.38;100692.66;5409956;32;44685;-73
2023/01/11 13:47:01;;;;;;;;;;;;;;;13.27;40.13;100689.59;5380410;32;34161;-73
2023/01/11 13:50:22;;;;;;;;;;;;;;;13.49;39.47;100695.59;5412197;32;34437;-76
2023/01/11 13:53:45;;;;;;;;;;;;;;;12.90;41.03;100688.56;5377700;32;44665;-69
2023/01/11 13:56:49;;;;;;;;;;;;;;;13.68;40.06;100687.66;5387166;32;44664;-70
2023/01/11 13:59:54;;;;;;;;;;;;;;;14.04;38.54;100681.56;5402203;32;34283;-70
2023/01/11 14:03:10;;;;;;;;;;;;;;;13.55;40.10;100686.53;5383445;32;32079;-70
2023/01/11 14:06:15;;;;;;;;;;;;;;;15.37;36.55;100688.81;5403073;32;33006;-78
2023/01/11 14:09:17;;;;;;;;;;;;;;;16.44;34.44;100682.78;5404872;32;46332;-75
2023/01/11 14:12:49;;;;;;;;;;;;;;;17.34;33.05;100687.13;5391953;32;33024;-83
2023/01/11 14:15:58;;;;;;;;;;;;;;;18.22;31.04;100674.37;5375332;32;44736;-67
2023/01/11 14:19:00;;;;;;;;;;;;;;;17.56;32.48;100676.81;5399633;32;34347;-77
2023/01/11 14:22:21;;;;;;;;;;;;;;;16.12;35.08;100674.06;5411356;32;33405;-73
2023/01/11 14:25:24;;;;;;;;;;;;;;;17.00;33.19;100669.72;5410928;32;44583;-81
2023/01/11 14:28:29;;;;;;;;;;;;;;;17.45;32.13;100663.38;5387294;32;34258;-77
2023/01/11 14:31:37;;;;;;;;;;;;;;;15.81;35.57;100666.97;5416942;32;33662;-79
2023/01/11 14:34:58;;;;;;;;;;;;;;;14.50;38.16;100666.94;5402415;32;33280;-81
2023/01/11 14:38:04;;;;;;;;;;;;;;;13.24;41.31;100687.94;5395610;32;32886;-74
2023/01/11 14:41:21;;;;;;;;;;;;;;;12.64;43.00;100686.19;5411340;32;32965;-71
2023/01/11 14:44:23;;;;;;;;;;;;;;;12.74;43.16;100683.06;5398554;32;44347;-72
2023/01/11 14:47:46;;;;;;;;;;;;;;;12.65;43.31;100685.25;5402176;32;31000;-76
2023/01/11 14:50:57;;;;;;;;;;;;;;;12.52;43.62;100686.72;5388692;32;46165;-75
2023/01/11 14:54:00;;;;;;;;;;;;;;;12.59;43.53;100683.75;5390065;32;35173;-70
2023/01/11 14:57:02;;;;;;;;;;;;;;;12.41;43.71;100690.66;5381606;32;32686;-69
2023/01/11 15:00:10;;;;;;;;;;;;;;;11.76;45.15;100685.38;5397887;32;34558;-70
2023/01/11 15:03:17;;;;;;;;;;;;;;;11.25;46.88;100684.66;5398920;32;35046;-72
2023/01/11 15:06:21;;;;;;;;;;;;;;;11.25;46.50;100684.66;5396115;32;46128;-66
2023/01/11 15:09:43;;;;;;;;;;;;;;;11.22;46.65;100684.81;5406362;32;33185;-70
2023/01/11 15:12:45;;;;;;;;;;;;;;;10.86;47.74;100684.34;5405232;32;33088;-71
2023/01/11 15:19:29;;;;;;;;;;;;;;;11.43;46.89;100680.50;5424093;32;33250;-84
2023/01/11 15:22:34;;;;;;;;;;;;;;;11.59;46.38;100679.00;5397459;32;34331;-84
2023/01/11 15:25:36;;;;;;;;;;;;;;;11.28;46.94;100675.81;5399902;32;33510;-76
2023/01/11 15:28:50;;;;;;;;;;;;;;;11.31;47.16;100692.34;5403365;32;33486;-74
2023/01/11 15:31:52;;;;;;;;;;;;;;;11.05;48.00;100692.44;5410364;32;46161;-76
2023/01/11 15:35:14;;;;;;;;;;;;;;;10.81;48.86;100695.03;5407661;32;34733;-67
2023/01/11 15:38:29;;;;;;;;;;;;;;;11.01;48.65;100691.72;5399269;32;43312;-78
2023/01/11 15:42:05;;;;;;;;;;;;;;;11.16;47.74;100698.19;5404072;32;31863;-86
2023/01/11 15:45:23;;;;;;;;;;;;;;;10.62;48.80;100688.69;5408396;32;33230;-85
2023/01/11 15:48:35;;;;;;;;;;;;;;;11.27;47.48;100682.88;5379960;32;44714;-79
2023/01/11 15:51:49;;;;;;;;;;;;;;;11.41;47.28;100684.13;5398880;32;33108;-78
2023/01/11 15:55:10;;;;;;;;;;;;;;;11.37;47.62;100689.47;5396633;32;44625;-76
2023/01/11 15:58:21;;;;;;;;;;;;;;;10.40;50.06;100687.72;5403793;32;33819;-78
2023/01/11 16:01:27;;;;;;;;;;;;;;;10.83;49.70;100693.22;5406399;32;43313;-79
2023/01/11 16:04:38;;;;;;;;;;;;;;;10.98;49.14;100690.94;5394501;32;36216;-75
2023/01/11 16:07:52;;;;;;;;;;;;;;;10.97;48.91;100689.22;5406334;32;33700;-79
2023/01/11 16:10:54;;;;;;;;;;;;;;;10.48;49.92;100690.94;5399211;32;44899;-75
2023/01/11 16:14:10;;;;;;;;;;;;;;;10.85;49.60;100701.03;5403543;32;33359;-75
2023/01/11 16:17:13;;;;;;;;;;;;;;;10.42;50.40;100680.63;5401805;32;33553;-77
2023/01/11 16:20:18;;;;;;;;;;;;;;;10.29;50.94;100691.53;5384541;32;33762;-78
2023/01/11 16:23:20;;;;;;;;;;;;;;;10.34;50.90;100687.91;5414795;32;46051;-78
2023/01/11 16:26:22;;;;;;;;;;;;;;;10.38;50.90;100690.41;5396133;32;33872;-76
2023/01/11 16:29:25;;;;;;;;;;;;;;;10.49;50.96;100688.25;5397522;32;34316;-77
2023/01/11 16:32:31;;;;;;;;;;;;;;;10.10;51.70;100690.41;5408814;32;33429;-76
2023/01/11 16:35:33;;;;;;;;;;;;;;;10.40;50.87;100682.47;5403950;32;34377;-75